Valencia, Pennsylvania
Current Conditions -  °F | °C
As of 3:15 AM on Thursday 27 Nov 2014 (Local Time) from KBTP Reporting Station
Overcast Overcast  
Wind Chill: -4°   Ceiling: 4000
Heat Index: -1°   Visibility: 3mi
Dew Point: -1°   Wind: 5mph
Humidity: 100%   Direction: 200°SSW
Pressure: 30"   Gusts: NA
Location:  40.68°N, 79.99°W
Report Text: KBTP 270815Z AUTO 20004KT 3SM SCT004 OVC040 M01/M01 A3000 RMK AO1
Loading
Personal Weather Stations






























Interactive Weather Map New forecast layout! Learn more

10-Day Weather Forecast

Advertisements
Track Severe Weather on mobile